MHLC/LCE METAR and TAF weather

Enter ICAO airport designator
Station Type Date Time Source
MHLC METAR 2019/10/23 06:00 UTC NOAA

MHLC 230600Z 00000KT 9999 SCT028 BKN080 24/24 Q1011 A2986 NOSIG


Station Type Date Time Source
MHLC Decoded METAR 2019/10/23 06:00 UTC NOAA

La Ceiba Airport , Honduras (MHLC) 15-44N 086-52W 26M
Oct 23, 2019 - 02:00 AM EDT / 2019.10.23 0600 UTC
Wind: Calm:0
Visibility: greater than 7 mile(s):0
Sky conditions: mostly cloudy
Temperature: 75 F (24 C)
Dew Point: 75 F (24 C)
Relative Humidity: 100%
Pressure (altimeter): 29.86 in. Hg (1011 hPa)
ob: MHLC 230600Z 00000KT 9999 SCT028 BKN080 24/24 Q1011 A2986 NOSIG
cycle: 6

Station Type Date Time Source
MHLC TAF 2019/10/23 06:59 UTC NOAA

TAF MHLC 230425Z 2306/2406 00000KT 9999 SCT024 BKN080 TX31/2321Z TN23/2312Z
BECMG 2310/2312 18006KT 8000 VCSH
BECMG 2314/2316 03006KT 9999 NSW SCT026TCU BKN080
TEMPO 2320/2402 6000 TSRA SCT028CB BKN080
BECMG 2402/2404 12006KT 8000 VCSH SCT024 SCT080

Example: see airport list